Time;durP1;ratioP1;P1;durP2;ratioP2;P2;SDS_P1;SDS_P2;PMS_P1;PMS_P2;Temp;Humidity;BMP_temperature;BMP_pressure;BME280_temperature;BME280_humidity;BME280_pressure;Samples;Min_cycle;Max_cycle;Signal;HPM_P1;HPM_P2
2021/09/03 00:02:09;;;;;;;10.55;7.13;;;18.20;72.40;;;;;;5078439;28;20123;-69
2021/09/03 00:04:35;;;;;;;10.70;7.00;;;18.20;72.70;;;;;;5095396;28;20439;-69
2021/09/03 00:07:01;;;;;;;11.95;6.90;;;18.20;72.70;;;;;;5095790;28;20082;-68
2021/09/03 00:09:27;;;;;;;10.35;6.72;;;18.20;72.70;;;;;;5096529;28;20044;-68
2021/09/03 00:11:52;;;;;;;9.75;7.60;;;18.20;72.70;;;;;;5096001;28;20405;-68
2021/09/03 00:14:18;;;;;;;11.75;7.72;;;18.20;73.20;;;;;;5095940;28;20036;-68
2021/09/03 00:16:44;;;;;;;9.70;7.68;;;18.20;72.60;;;;;;5078068;28;20109;-68
2021/09/03 00:19:10;;;;;;;9.75;7.25;;;18.20;72.70;;;;;;5095642;28;20048;-69
2021/09/03 00:21:35;;;;;;;10.20;7.28;;;18.20;72.50;;;;;;5078576;28;20123;-68
2021/09/03 00:24:01;;;;;;;10.32;7.82;;;18.20;72.50;;;;;;5095913;28;20079;-69
2021/09/03 00:26:27;;;;;;;9.50;6.60;;;18.10;72.50;;;;;;5078216;28;20048;-69
2021/09/03 00:28:53;;;;;;;11.13;7.18;;;18.10;72.40;;;;;;5077862;28;20364;-69
2021/09/03 00:31:18;;;;;;;9.55;7.10;;;18.20;72.50;;;;;;5095568;28;20100;-69
2021/09/03 00:33:44;;;;;;;10.18;7.25;;;18.10;72.50;;;;;;5095588;28;20060;-69
2021/09/03 00:36:10;;;;;;;10.25;7.38;;;18.10;72.50;;;;;;5095668;28;20039;-69
2021/09/03 00:38:35;;;;;;;10.88;7.38;;;18.10;72.50;;;;;;5095786;28;20043;-68
2021/09/03 00:41:02;;;;;;;11.85;7.60;;;18.10;72.30;;;;;;5095639;28;20063;-69
2021/09/03 00:43:28;;;;;;;8.70;6.85;;;18.10;72.50;;;;;;5095825;28;20058;-68
2021/09/03 00:45:54;;;;;;;8.68;7.03;;;18.10;72.50;;;;;;5095570;28;20102;-69
2021/09/03 00:48:20;;;;;;;11.25;7.15;;;18.10;72.50;;;;;;5078184;28;20044;-69
2021/09/03 00:50:46;;;;;;;10.02;7.55;;;18.10;72.50;;;;;;5095180;28;20054;-69
2021/09/03 00:53:12;;;;;;;11.68;7.68;;;18.10;72.40;;;;;;5095329;28;20059;-69
2021/09/03 00:55:38;;;;;;;9.27;7.22;;;18.10;72.20;;;;;;5095419;28;20036;-69
2021/09/03 00:58:04;;;;;;;8.63;6.78;;;18.10;72.10;;;;;;5095274;28;20052;-69
2021/09/03 01:00:30;;;;;;;10.70;7.05;;;18.10;72.30;;;;;;5095122;28;20035;-68
2021/09/03 01:02:56;;;;;;;11.18;7.10;;;18.10;72.20;;;;;;5094776;28;20044;-68
2021/09/03 01:05:23;;;;;;;8.50;6.80;;;18.00;72.10;;;;;;5094989;28;20135;-68
2021/09/03 01:07:52;;;;;;;10.18;7.43;;;18.00;72.30;;;;;;5095242;28;20150;-69
2021/09/03 01:10:21;;;;;;;11.93;7.35;;;18.00;72.00;;;;;;5095273;28;20079;-69
2021/09/03 01:12:48;;;;;;;10.13;7.20;;;18.00;71.70;;;;;;5095197;28;20417;-69
2021/09/03 01:15:15;;;;;;;11.05;8.00;;;18.00;72.20;;;;;;5095098;28;20090;-68
2021/09/03 01:17:41;;;;;;;9.43;7.15;;;18.00;72.30;;;;;;5098042;28;20043;-69
2021/09/03 01:20:09;;;;;;;10.65;7.60;;;18.00;72.30;;;;;;5099679;28;20319;-69
2021/09/03 01:22:34;;;;;;;10.27;7.05;;;18.00;72.10;;;;;;5099094;28;20055;-70
2021/09/03 01:25:00;;;;;;;9.43;6.82;;;18.00;72.30;;;;;;5081191;28;20040;-68
2021/09/03 01:27:27;;;;;;;9.50;6.75;;;18.00;72.10;;;;;;5081286;28;20092;-68
2021/09/03 01:29:53;;;;;;;10.52;7.35;;;18.00;72.20;;;;;;5099269;28;20109;-69
2021/09/03 01:32:19;;;;;;;9.65;6.97;;;18.00;72.40;;;;;;5099578;28;20477;-69
2021/09/03 01:34:45;;;;;;;10.52;7.90;;;18.00;72.20;;;;;;5081508;28;20043;-69
2021/09/03 01:37:11;;;;;;;10.88;7.20;;;18.00;72.20;;;;;;5098714;28;20127;-69
2021/09/03 01:39:37;;;;;;;11.23;7.78;;;18.00;72.80;;;;;;5098945;28;20451;-68
2021/09/03 01:42:03;;;;;;;8.60;6.68;;;17.90;72.10;;;;;;5099549;28;20055;-68
2021/09/03 01:44:29;;;;;;;10.73;7.05;;;17.90;72.00;;;;;;5098616;28;20138;-68
2021/09/03 01:46:55;;;;;;;8.82;6.63;;;17.90;72.10;;;;;;5080652;28;20043;-68
2021/09/03 01:49:21;;;;;;;11.68;7.30;;;17.90;72.10;;;;;;5098496;28;20047;-68
2021/09/03 01:51:47;;;;;;;11.15;7.35;;;17.90;71.90;;;;;;5099090;28;20200;-68
2021/09/03 01:54:12;;;;;;;7.95;7.15;;;17.90;72.00;;;;;;5098936;28;20438;-68
2021/09/03 01:56:38;;;;;;;8.50;6.57;;;17.90;72.10;;;;;;5098511;28;20071;-69
2021/09/03 01:59:04;;;;;;;10.82;7.10;;;17.90;72.20;;;;;;5098715;28;20058;-68
2021/09/03 02:01:30;;;;;;;9.90;6.95;;;17.90;72.20;;;;;;5098218;28;20373;-68
2021/09/03 02:03:56;;;;;;;9.77;6.88;;;17.80;72.10;;;;;;5098604;28;20058;-68
2021/09/03 02:06:21;;;;;;;9.23;6.80;;;17.80;72.00;;;;;;5098219;28;20075;-69
2021/09/03 02:08:47;;;;;;;9.32;6.65;;;17.80;71.90;;;;;;5098489;28;20054;-68
2021/09/03 02:11:13;;;;;;;8.95;6.28;;;17.80;72.00;;;;;;5098595;28;20044;-69
2021/09/03 02:13:39;;;;;;;10.90;7.30;;;17.80;71.90;;;;;;5098059;28;20044;-69
2021/09/03 02:16:05;;;;;;;8.80;6.60;;;17.70;71.90;;;;;;5098180;28;20509;-69
2021/09/03 02:18:31;;;;;;;7.65;6.53;;;17.80;72.10;;;;;;5098615;28;20040;-69
2021/09/03 02:20:56;;;;;;;8.57;6.55;;;17.80;72.10;;;;;;5098368;28;20128;-69
2021/09/03 02:23:23;;;;;;;9.68;6.60;;;17.70;72.20;;;;;;5098377;28;20101;-69
2021/09/03 02:25:48;;;;;;;9.57;7.00;;;17.70;72.10;;;;;;5098022;28;20047;-68
2021/09/03 02:28:15;;;;;;;10.40;6.55;;;17.70;72.80;;;;;;5079137;28;20442;-68
2021/09/03 02:30:42;;;;;;;8.00;6.22;;;17.70;72.10;;;;;;5080331;28;20511;-69
2021/09/03 02:33:08;;;;;;;10.48;6.95;;;17.70;72.00;;;;;;5097826;28;20118;-68
2021/09/03 02:35:34;;;;;;;9.30;7.00;;;17.70;72.10;;;;;;5097823;28;20127;-68
2021/09/03 02:37:59;;;;;;;7.43;6.35;;;17.70;72.20;;;;;;5097148;28;20043;-68
2021/09/03 02:40:26;;;;;;;10.23;6.68;;;17.70;72.20;;;;;;5097913;28;20383;-69
2021/09/03 02:42:52;;;;;;;8.50;6.25;;;17.70;72.20;;;;;;5097516;28;20087;-69
2021/09/03 02:45:18;;;;;;;11.23;6.47;;;17.70;72.20;;;;;;5097431;28;20095;-68
2021/09/03 02:47:44;;;;;;;8.35;6.00;;;17.70;72.10;;;;;;5097585;28;20047;-68
2021/09/03 02:50:10;;;;;;;8.52;6.10;;;17.70;72.10;;;;;;5079780;28;20077;-69
2021/09/03 02:52:36;;;;;;;10.18;6.25;;;17.70;72.20;;;;;;5097451;28;20339;-68
2021/09/03 02:55:03;;;;;;;8.70;5.78;;;17.70;72.30;;;;;;5097550;28;20044;-68
2021/09/03 02:57:28;;;;;;;9.00;6.25;;;17.70;72.10;;;;;;5097413;28;20040;-69
2021/09/03 02:59:54;;;;;;;9.05;5.95;;;17.70;72.10;;;;;;5079592;28;20074;-69
2021/09/03 03:02:20;;;;;;;10.55;6.47;;;17.70;71.90;;;;;;5097074;28;20109;-68
2021/09/03 03:04:46;;;;;;;8.82;5.63;;;17.70;71.90;;;;;;5097434;28;20056;-69
2021/09/03 03:07:11;;;;;;;8.52;5.90;;;17.70;71.90;;;;;;5079612;28;20036;-69
2021/09/03 03:09:37;;;;;;;8.05;5.90;;;17.70;71.80;;;;;;5097444;28;20093;-69
2021/09/03 03:12:03;;;;;;;9.50;6.40;;;17.70;71.90;;;;;;5097869;28;20382;-69
2021/09/03 03:14:33;;;;;;;7.13;5.85;;;17.70;71.90;;;;;;5079243;28;20135;-69
2021/09/03 03:17:02;;;;;;;8.40;5.97;;;17.60;71.60;;;;;;5097112;28;20127;-69
2021/09/03 03:19:29;;;;;;;9.38;6.00;;;17.60;71.80;;;;;;5097332;28;20040;-69
2021/09/03 03:21:55;;;;;;;8.80;6.25;;;17.60;71.80;;;;;;5097186;28;20083;-68
2021/09/03 03:24:20;;;;;;;8.32;5.82;;;17.60;71.80;;;;;;5096888;28;20047;-69
2021/09/03 03:26:47;;;;;;;10.32;6.15;;;17.60;71.60;;;;;;5096595;28;20044;-69
2021/09/03 03:29:13;;;;;;;7.63;6.15;;;17.50;71.80;;;;;;5096538;28;20071;-69
2021/09/03 03:31:39;;;;;;;8.77;5.40;;;17.60;71.70;;;;;;5096677;28;20113;-68
2021/09/03 03:34:05;;;;;;;7.75;5.32;;;17.50;71.80;;;;;;5097078;28;20047;-68
2021/09/03 03:36:31;;;;;;;10.50;6.05;;;17.50;71.80;;;;;;5096803;28;20426;-68
2021/09/03 03:38:57;;;;;;;10.13;6.20;;;17.50;71.80;;;;;;5096605;28;20472;-68
2021/09/03 03:41:22;;;;;;;9.45;5.68;;;17.50;71.80;;;;;;5078677;28;20047;-68
2021/09/03 03:43:48;;;;;;;8.60;6.20;;;17.50;71.60;;;;;;5079090;28;20101;-68
2021/09/03 03:46:14;;;;;;;10.10;6.63;;;17.40;71.60;;;;;;5096411;28;20115;-68
2021/09/03 03:48:40;;;;;;;9.40;6.60;;;17.40;71.60;;;;;;5078875;28;20048;-68
2021/09/03 03:51:06;;;;;;;9.77;5.93;;;17.40;71.60;;;;;;5078343;28;20044;-68
2021/09/03 03:53:32;;;;;;;7.90;5.40;;;17.40;71.80;;;;;;5078854;28;20044;-68
2021/09/03 03:55:58;;;;;;;8.88;6.03;;;17.40;72.30;;;;;;5096384;28;20039;-69
2021/09/03 03:58:23;;;;;;;11.57;5.90;;;17.40;71.80;;;;;;5096046;28;20109;-68
2021/09/03 04:00:49;;;;;;;8.13;5.80;;;17.40;71.90;;;;;;5096110;28;20044;-68
2021/09/03 04:03:15;;;;;;;7.03;5.38;;;17.40;71.80;;;;;;5096080;28;20040;-69
2021/09/03 04:05:40;;;;;;;8.70;5.43;;;17.40;71.90;;;;;;5096191;28;20081;-69
2021/09/03 04:08:07;;;;;;;7.97;6.07;;;17.40;72.00;;;;;;5096818;28;20301;-69
2021/09/03 04:10:33;;;;;;;8.02;5.80;;;17.40;71.80;;;;;;5078282;28;20040;-69
2021/09/03 04:12:59;;;;;;;9.65;6.20;;;17.50;71.70;;;;;;5095833;28;20036;-69
2021/09/03 04:15:25;;;;;;;9.10;6.03;;;17.50;71.80;;;;;;5095758;28;20044;-69
2021/09/03 04:17:50;;;;;;;8.63;6.07;;;17.40;71.70;;;;;;5095822;28;20083;-68
2021/09/03 04:20:16;;;;;;;8.38;6.05;;;17.40;71.70;;;;;;5095642;28;20052;-69
2021/09/03 04:22:42;;;;;;;7.30;5.38;;;17.50;71.70;;;;;;5095946;28;20048;-68
2021/09/03 04:25:09;;;;;;;7.88;5.50;;;17.50;71.60;;;;;;5095864;28;20055;-68
2021/09/03 04:27:36;;;;;;;9.82;5.40;;;17.50;71.60;;;;;;5095266;28;20055;-69
2021/09/03 04:30:03;;;;;;;7.30;5.30;;;17.50;71.70;;;;;;5095902;28;20108;-69
2021/09/03 04:32:29;;;;;;;8.27;5.60;;;17.40;71.50;;;;;;5095646;28;20052;-68
2021/09/03 04:34:55;;;;;;;9.60;6.03;;;17.40;71.60;;;;;;5100114;28;20110;-68
2021/09/03 04:37:20;;;;;;;9.20;6.30;;;17.40;71.50;;;;;;5114727;28;20080;-69
2021/09/03 04:39:46;;;;;;;9.45;5.60;;;17.40;71.50;;;;;;5105817;28;20358;-69
2021/09/03 04:42:12;;;;;;;9.88;5.40;;;17.50;71.50;;;;;;5095768;28;20032;-68
2021/09/03 04:44:38;;;;;;;7.82;5.30;;;17.50;71.80;;;;;;5094845;28;20062;-71
2021/09/03 04:47:04;;;;;;;12.02;5.80;;;17.60;72.10;;;;;;5095403;28;20052;-68
2021/09/03 04:49:29;;;;;;;11.90;6.00;;;17.70;71.20;;;;;;5077862;28;20039;-68
2021/09/03 04:51:55;;;;;;;11.18;6.18;;;17.80;70.90;;;;;;5095011;28;20043;-71
2021/09/03 04:54:21;;;;;;;9.60;5.40;;;17.80;70.80;;;;;;5095289;28;20043;-70
2021/09/03 04:56:46;;;;;;;9.35;5.72;;;17.90;71.70;;;;;;5095528;28;20444;-68
2021/09/03 04:59:12;;;;;;;9.25;5.55;;;18.00;71.50;;;;;;5095831;28;20040;-69
2021/09/03 05:01:38;;;;;;;10.45;6.00;;;18.10;71.70;;;;;;5077271;28;20048;-70
2021/09/03 05:04:04;;;;;;;12.82;5.63;;;18.30;71.40;;;;;;5095316;28;20036;-70
2021/09/03 05:06:29;;;;;;;13.80;6.30;;;18.40;71.70;;;;;;5078017;28;20131;-68
2021/09/03 05:08:55;;;;;;;10.18;5.93;;;18.20;69.90;;;;;;5094996;28;20042;-70
2021/09/03 05:11:21;;;;;;;12.10;6.03;;;18.00;70.30;;;;;;5078096;28;20058;-69
2021/09/03 05:13:47;;;;;;;8.40;5.55;;;17.70;71.30;;;;;;5094661;28;20082;-68
2021/09/03 05:16:13;;;;;;;10.25;5.32;;;17.50;71.80;;;;;;5095360;28;20044;-68
2021/09/03 05:18:39;;;;;;;10.90;6.55;;;17.40;72.60;;;;;;5077470;28;20044;-68
2021/09/03 05:21:07;;;;;;;8.93;5.93;;;17.30;73.00;;;;;;5095315;28;20040;-68
2021/09/03 05:23:33;;;;;;;9.95;6.30;;;17.20;73.90;;;;;;5094852;28;20048;-69
2021/09/03 05:25:59;;;;;;;10.80;5.97;;;17.20;73.60;;;;;;5094394;28;20115;-68
2021/09/03 05:28:27;;;;;;;9.07;4.90;;;17.20;74.90;;;;;;5095112;28;20118;-70
2021/09/03 05:30:52;;;;;;;10.60;5.22;;;17.50;75.40;;;;;;5095051;28;20044;-70
2021/09/03 05:33:18;;;;;;;13.02;6.47;;;17.80;75.30;;;;;;5095160;28;20059;-69
2021/09/03 05:35:44;;;;;;;10.82;6.57;;;17.80;72.50;;;;;;5094615;28;20039;-69
2021/09/03 05:38:09;;;;;;;10.45;5.90;;;17.50;72.60;;;;;;5077380;28;20343;-68
2021/09/03 05:40:36;;;;;;;13.25;6.03;;;17.50;73.80;;;;;;5094378;28;20097;-71
2021/09/03 05:43:02;;;;;;;8.18;5.22;;;17.40;74.50;;;;;;5094580;28;20055;-68
2021/09/03 05:45:28;;;;;;;11.95;5.72;;;17.40;73.90;;;;;;5094708;28;20115;-73
2021/09/03 05:47:54;;;;;;;15.15;5.93;;;17.50;75.00;;;;;;5077318;28;20076;-68
2021/09/03 05:50:20;;;;;;;15.50;6.07;;;17.70;74.90;;;;;;5094908;28;20059;-70
2021/09/03 05:52:46;;;;;;;20.42;7.70;;;17.90;74.60;;;;;;5094900;28;20385;-69
2021/09/03 05:55:12;;;;;;;15.32;8.30;;;18.00;74.40;;;;;;5094942;28;20042;-69
2021/09/03 05:57:39;;;;;;;19.40;8.18;;;18.10;74.10;;;;;;5094617;28;20094;-69
2021/09/03 06:00:06;;;;;;;14.65;7.65;;;18.20;73.90;;;;;;5076958;28;20161;-70
2021/09/03 06:02:32;;;;;;;11.23;6.57;;;18.20;73.70;;;;;;5094742;28;20032;-68
2021/09/03 06:04:57;;;;;;;17.98;6.97;;;18.20;73.60;;;;;;5098138;28;20047;-69
2021/09/03 06:07:23;;;;;;;13.32;6.95;;;18.30;73.60;;;;;;5098559;28;20503;-70
2021/09/03 06:09:49;;;;;;;14.25;6.78;;;18.30;73.50;;;;;;5098318;28;20054;-69
2021/09/03 06:12:15;;;;;;;13.98;7.28;;;18.40;73.40;;;;;;5080621;28;20040;-70
2021/09/03 06:14:41;;;;;;;10.75;6.40;;;18.40;73.30;;;;;;5098190;28;20100;-69
2021/09/03 06:17:06;;;;;;;12.52;6.63;;;18.40;73.90;;;;;;5098110;28;20126;-69
2021/09/03 06:19:32;;;;;;;12.75;6.47;;;18.40;73.10;;;;;;5080447;28;20132;-70
2021/09/03 06:22:00;;;;;;;18.25;6.90;;;18.40;73.00;;;;;;5098210;28;20577;-69
2021/09/03 06:24:28;;;;;;;13.77;7.00;;;18.50;73.00;;;;;;5098234;28;20044;-69
2021/09/03 06:26:58;;;;;;;12.23;6.55;;;18.50;73.00;;;;;;5098281;28;20036;-70
2021/09/03 06:32:24;;;;;;;11.23;7.20;;;18.50;72.90;;;;;;5046688;28;20055;-69
2021/09/03 06:34:57;;;;;;;11.50;8.15;;;18.50;72.70;;;;;;5098106;28;20319;-70
2021/09/03 06:37:25;;;;;;;14.52;6.97;;;18.50;72.70;;;;;;5098212;28;20105;-69
2021/09/03 06:39:52;;;;;;;13.05;7.45;;;18.60;72.70;;;;;;5098001;28;20051;-69
2021/09/03 06:42:18;;;;;;;11.88;6.65;;;18.50;72.60;;;;;;5097704;28;20347;-70
2021/09/03 06:44:44;;;;;;;9.07;6.20;;;18.60;72.60;;;;;;5079569;28;20097;-70
2021/09/03 06:47:11;;;;;;;10.20;6.50;;;18.60;72.60;;;;;;5097434;28;20044;-69
2021/09/03 06:49:38;;;;;;;10.57;6.47;;;18.60;72.50;;;;;;5080096;28;20048;-69
2021/09/03 06:52:05;;;;;;;10.02;6.57;;;18.60;72.50;;;;;;5097889;28;20481;-69
2021/09/03 06:54:34;;;;;;;13.02;6.45;;;18.60;72.40;;;;;;5079848;28;20446;-69
2021/09/03 06:57:01;;;;;;;9.52;6.72;;;18.60;72.40;;;;;;5097568;28;20062;-70
2021/09/03 06:59:27;;;;;;;9.95;6.78;;;18.60;72.40;;;;;;5097277;28;20048;-70
2021/09/03 07:01:54;;;;;;;14.07;6.97;;;18.60;72.40;;;;;;5097209;28;20047;-69
2021/09/03 07:04:20;;;;;;;9.80;7.00;;;18.60;72.30;;;;;;5097723;28;20039;-69
2021/09/03 07:06:46;;;;;;;12.02;6.78;;;18.60;72.40;;;;;;5097905;28;20129;-70
2021/09/03 07:09:11;;;;;;;14.63;7.38;;;18.70;72.40;;;;;;5098005;28;20411;-69
2021/09/03 07:11:37;;;;;;;14.43;7.75;;;18.60;72.30;;;;;;5079444;28;20343;-75
2021/09/03 07:14:05;;;;;;;14.60;7.60;;;18.70;72.40;;;;;;5096782;28;20032;-74
2021/09/03 07:16:32;;;;;;;12.70;7.80;;;18.70;72.50;;;;;;5096770;28;20044;-73
2021/09/03 07:19:02;;;;;;;14.82;7.63;;;18.70;72.50;;;;;;5096860;28;20040;-74
2021/09/03 07:21:28;;;;;;;15.38;7.72;;;18.70;72.50;;;;;;5097037;28;20090;-73
2021/09/03 07:23:54;;;;;;;12.95;7.53;;;18.70;72.60;;;;;;5096856;28;20427;-72
2021/09/03 07:26:20;;;;;;;13.20;7.50;;;18.70;72.70;;;;;;5097097;28;20118;-71
2021/09/03 07:28:45;;;;;;;14.20;7.45;;;18.50;72.80;;;;;;5096799;28;20170;-72
2021/09/03 07:31:11;;;;;;;15.20;7.72;;;18.50;73.00;;;;;;5096526;28;20047;-72
2021/09/03 07:33:37;;;;;;;13.25;6.97;;;18.50;73.20;;;;;;5096481;28;20156;-72
2021/09/03 07:36:03;;;;;;;15.23;7.10;;;18.40;73.40;;;;;;5096846;28;20039;-72
2021/09/03 07:38:30;;;;;;;15.43;6.50;;;18.40;73.40;;;;;;5096983;28;20339;-71
2021/09/03 07:40:56;;;;;;;18.55;6.82;;;18.30;73.60;;;;;;5096834;28;20493;-71
2021/09/03 07:43:22;;;;;;;13.25;6.63;;;18.30;73.60;;;;;;5096420;28;20155;-75
2021/09/03 07:45:48;;;;;;;12.57;7.03;;;18.20;73.90;;;;;;5096421;28;20090;-71
2021/09/03 07:48:14;;;;;;;15.70;7.00;;;18.20;73.90;;;;;;5096365;28;20462;-71
2021/09/03 07:50:40;;;;;;;12.73;7.28;;;18.20;74.10;;;;;;5096132;28;20040;-71
2021/09/03 07:53:06;;;;;;;13.73;6.93;;;18.10;74.30;;;;;;5096469;28;20123;-71
2021/09/03 07:55:34;;;;;;;13.23;6.38;;;18.10;74.50;;;;;;5096677;28;20127;-71
2021/09/03 07:58:01;;;;;;;11.85;6.47;;;18.10;74.60;;;;;;5096299;28;20050;-71
2021/09/03 08:00:27;;;;;;;15.13;7.25;;;18.10;74.60;;;;;;5095908;28;20044;-71
2021/09/03 08:02:53;;;;;;;12.75;6.35;;;18.10;74.80;;;;;;5095888;28;20130;-72
2021/09/03 08:05:19;;;;;;;10.23;6.55;;;18.10;74.80;;;;;;5095727;28;20039;-70
2021/09/03 08:07:44;;;;;;;12.57;6.75;;;18.10;74.90;;;;;;5096036;28;20116;-71
2021/09/03 08:10:12;;;;;;;11.35;6.22;;;18.10;74.90;;;;;;5096290;28;20044;-71
2021/09/03 08:12:39;;;;;;;9.50;6.38;;;18.10;74.80;;;;;;5096019;28;20047;-71
2021/09/03 08:15:06;;;;;;;11.82;6.55;;;18.10;74.80;;;;;;5095775;28;20039;-70
2021/09/03 08:17:33;;;;;;;10.98;6.38;;;18.10;74.90;;;;;;5095723;28;20040;-71
2021/09/03 08:19:59;;;;;;;12.43;6.55;;;18.10;74.80;;;;;;5095529;28;20075;-71
2021/09/03 08:22:25;;;;;;;10.80;6.32;;;18.10;74.70;;;;;;5096616;28;20331;-71
2021/09/03 08:24:51;;;;;;;8.50;5.50;;;18.10;74.70;;;;;;5095888;28;20032;-71
2021/09/03 08:27:16;;;;;;;11.18;6.30;;;18.20;74.80;;;;;;5095063;28;20442;-71
2021/09/03 08:29:44;;;;;;;13.63;6.75;;;18.20;74.60;;;;;;5095687;28;20055;-70
2021/09/03 08:32:10;;;;;;;9.07;6.03;;;18.20;74.70;;;;;;5095755;28;20332;-71
2021/09/03 08:34:36;;;;;;;10.00;5.68;;;18.20;74.60;;;;;;5095651;28;20379;-71
2021/09/03 08:37:02;;;;;;;13.27;6.10;;;18.20;74.60;;;;;;5095914;28;20050;-71
2021/09/03 08:39:27;;;;;;;9.77;5.88;;;18.30;74.60;;;;;;5095721;28;20113;-71
2021/09/03 08:41:53;;;;;;;9.40;5.82;;;18.30;74.50;;;;;;5095593;28;20409;-71
2021/09/03 08:44:19;;;;;;;12.02;6.50;;;18.30;74.50;;;;;;5095273;28;20044;-71
2021/09/03 08:46:47;;;;;;;11.98;5.60;;;18.30;74.50;;;;;;5095574;28;20386;-71
2021/09/03 08:49:13;;;;;;;11.63;6.68;;;18.40;74.50;;;;;;5095574;28;20048;-71
2021/09/03 08:51:39;;;;;;;11.52;5.75;;;18.40;74.30;;;;;;5095580;28;20355;-71
2021/09/03 08:54:05;;;;;;;12.52;6.53;;;18.40;74.30;;;;;;5095404;28;20081;-71
2021/09/03 08:56:31;;;;;;;12.05;6.10;;;18.40;74.90;;;;;;5095739;28;20044;-72
2021/09/03 08:58:57;;;;;;;16.25;6.55;;;18.40;74.40;;;;;;5095113;28;20054;-72
2021/09/03 09:01:23;;;;;;;11.45;5.50;;;18.40;74.40;;;;;;5094037;28;20036;-72
2021/09/03 09:03:51;;;;;;;11.63;6.50;;;18.40;74.20;;;;;;5095223;28;20079;-72
2021/09/03 09:06:27;;;;;;;10.18;6.30;;;18.40;74.30;;;;;;5094990;28;20129;-72
2021/09/03 09:08:56;;;;;;;12.25;6.13;;;18.40;74.20;;;;;;5095070;28;20108;-71
2021/09/03 09:11:26;;;;;;;12.30;6.78;;;18.50;74.20;;;;;;5094988;28;20101;-72
2021/09/03 09:13:57;;;;;;;12.60;5.72;;;18.50;74.20;;;;;;5094970;28;20044;-72
2021/09/03 09:16:26;;;;;;;9.18;5.80;;;18.50;74.20;;;;;;5094908;28;20040;-71
2021/09/03 09:18:56;;;;;;;10.20;6.05;;;18.50;74.30;;;;;;5095069;28;20115;-71
2021/09/03 09:21:23;;;;;;;10.27;5.75;;;18.40;74.30;;;;;;5094950;28;20043;-70
2021/09/03 09:23:50;;;;;;;12.00;6.30;;;18.50;74.30;;;;;;5094567;28;20048;-72
2021/09/03 09:26:20;;;;;;;10.73;6.15;;;18.50;74.30;;;;;;5094893;28;20052;-71
2021/09/03 09:28:46;;;;;;;10.70;5.57;;;18.50;74.30;;;;;;5094300;28;20040;-72
2021/09/03 09:31:27;;;;;;;10.93;5.75;;;18.50;74.30;;;;;;5094354;28;20466;-72
2021/09/03 09:33:53;;;;;;;7.90;5.85;;;18.50;74.10;;;;;;5094807;28;20044;-72
2021/09/03 09:36:19;;;;;;;8.93;6.03;;;18.50;74.40;;;;;;5094379;28;20052;-72
2021/09/03 09:38:45;;;;;;;13.68;6.20;;;18.50;74.40;;;;;;5097728;28;20050;-71
2021/09/03 09:41:13;;;;;;;10.93;6.28;;;18.50;74.40;;;;;;5098465;28;20482;-71
2021/09/03 09:43:42;;;;;;;10.15;6.25;;;18.50;74.50;;;;;;5080376;28;20119;-72
2021/09/03 09:46:21;;;;;;;12.10;6.35;;;18.50;74.40;;;;;;5098576;28;20124;-72
2021/09/03 09:48:50;;;;;;;11.35;6.70;;;18.50;74.40;;;;;;5098493;28;20074;-73
2021/09/03 09:51:27;;;;;;;10.48;6.00;;;18.50;74.40;;;;;;5098613;28;20056;-73
2021/09/03 09:53:59;;;;;;;12.98;6.18;;;18.50;74.50;;;;;;5080499;28;20111;-72
2021/09/03 09:56:27;;;;;;;9.32;6.03;;;18.50;74.60;;;;;;5098448;28;20047;-73
2021/09/03 09:58:55;;;;;;;10.55;6.00;;;18.50;74.70;;;;;;5098375;28;20083;-71
2021/09/03 10:01:22;;;;;;;10.55;6.38;;;18.50;74.70;;;;;;5098171;28;20031;-73
2021/09/03 10:03:49;;;;;;;9.65;6.13;;;18.60;74.70;;;;;;5097134;28;20040;-73
2021/09/03 10:06:20;;;;;;;11.10;5.63;;;18.60;74.50;;;;;;5077766;28;20032;-72
2021/09/03 10:08:48;;;;;;;10.10;6.15;;;18.60;74.50;;;;;;5078089;28;20046;-72
2021/09/03 10:11:16;;;;;;;8.70;5.97;;;18.60;74.50;;;;;;5078077;28;20055;-72
2021/09/03 10:13:42;;;;;;;9.88;6.53;;;18.60;74.40;;;;;;5077780;28;20080;-72
2021/09/03 10:16:08;;;;;;;9.75;5.85;;;18.60;74.40;;;;;;5077565;28;20051;-72
2021/09/03 10:18:34;;;;;;;8.52;5.80;;;18.70;74.50;;;;;;5077503;28;20055;-72
2021/09/03 10:21:02;;;;;;;8.27;5.70;;;18.70;74.50;;;;;;5060691;28;20436;-73
2021/09/03 10:23:52;;;;;;;12.13;6.15;;;18.70;74.40;;;;;;5077731;28;20045;-72
2021/09/03 10:26:22;;;;;;;8.27;5.70;;;18.70;74.20;;;;;;5077613;28;20052;-72
2021/09/03 10:28:48;;;;;;;12.65;6.22;;;18.70;74.40;;;;;;5077672;28;20044;-72
2021/09/03 10:31:19;;;;;;;9.63;6.10;;;18.70;75.00;;;;;;5078417;28;20293;-72
2021/09/03 10:33:46;;;;;;;9.90;5.80;;;18.70;74.40;;;;;;5077829;28;20048;-72
2021/09/03 10:36:12;;;;;;;9.60;5.40;;;18.70;74.30;;;;;;5078386;28;20067;-72
2021/09/03 10:38:43;;;;;;;13.52;6.70;;;18.80;74.40;;;;;;5078210;28;20036;-72
2021/09/03 10:41:45;;;;;;;9.60;5.55;;;18.70;74.30;;;;;;5077968;28;20040;-72
2021/09/03 10:44:11;;;;;;;10.00;5.75;;;18.70;74.30;;;;;;5077380;28;20420;-72
2021/09/03 10:46:43;;;;;;;8.52;6.10;;;18.70;74.40;;;;;;5078191;28;20127;-71
2021/09/03 10:49:08;;;;;;;7.57;5.18;;;18.70;74.90;;;;;;5076485;28;20045;-72
2021/09/03 10:51:36;;;;;;;9.55;6.05;;;18.80;74.40;;;;;;5077272;28;20052;-72
2021/09/03 10:54:14;;;;;;;8.60;5.63;;;18.80;74.40;;;;;;5077476;28;20355;-72
2021/09/03 10:56:56;;;;;;;8.50;5.28;;;18.80;74.30;;;;;;5077490;28;20043;-72
2021/09/03 10:59:21;;;;;;;10.80;5.22;;;18.80;74.20;;;;;;5077303;28;20082;-72
2021/09/03 11:01:53;;;;;;;10.88;5.65;;;18.80;74.30;;;;;;5076733;28;20044;-72
2021/09/03 11:04:21;;;;;;;8.57;5.38;;;18.80;74.30;;;;;;5076908;28;20033;-71
2021/09/03 11:06:47;;;;;;;6.38;5.40;;;18.80;74.30;;;;;;5077689;28;20076;-72
2021/09/03 11:09:15;;;;;;;9.38;5.28;;;18.80;74.30;;;;;;5077170;28;20095;-72
2021/09/03 11:11:46;;;;;;;7.07;5.75;;;18.80;74.20;;;;;;5077135;28;20059;-72
2021/09/03 11:14:14;;;;;;;8.32;5.90;;;18.80;74.20;;;;;;5077564;28;20135;-72
2021/09/03 11:16:57;;;;;;;8.98;5.65;;;18.90;74.30;;;;;;5059916;28;20040;-71
2021/09/03 11:19:35;;;;;;;7.38;5.60;;;18.90;74.20;;;;;;5076655;28;20033;-71
2021/09/03 11:22:14;;;;;;;7.50;5.07;;;18.90;74.20;;;;;;5076738;28;20044;-71
2021/09/03 11:24:56;;;;;;;9.45;6.03;;;18.90;74.20;;;;;;5076260;28;20040;-71
2021/09/03 11:27:29;;;;;;;9.15;5.95;;;18.90;74.20;;;;;;5076546;28;20045;-72
2021/09/03 11:30:01;;;;;;;6.75;5.00;;;18.90;74.20;;;;;;5076609;28;20041;-72
2021/09/03 11:32:27;;;;;;;7.95;5.53;;;18.90;74.10;;;;;;5076736;28;20041;-72
2021/09/03 11:35:02;;;;;;;7.80;5.35;;;18.90;74.10;;;;;;5076618;28;20055;-72
2021/09/03 11:37:34;;;;;;;8.82;5.95;;;18.90;74.10;;;;;;5076453;28;20080;-72
2021/09/03 11:40:11;;;;;;;7.57;5.55;;;18.90;74.20;;;;;;5076194;28;20090;-72
2021/09/03 11:42:41;;;;;;;7.45;5.57;;;18.90;74.10;;;;;;5076275;28;20051;-72
2021/09/03 11:45:42;;;;;;;11.30;5.57;;;18.90;74.20;;;;;;5076309;28;20501;-72
2021/09/03 11:48:25;;;;;;;6.60;5.38;;;19.00;74.20;;;;;;5076109;28;20160;-72
2021/09/03 11:50:51;;;;;;;8.80;5.68;;;18.90;74.10;;;;;;5076277;28;20428;-72
2021/09/03 11:53:24;;;;;;;6.70;5.53;;;19.00;74.20;;;;;;5076045;28;20048;-72
2021/09/03 11:55:51;;;;;;;8.13;5.87;;;19.00;74.20;;;;;;5076111;28;20044;-71
2021/09/03 11:58:20;;;;;;;8.13;5.90;;;18.90;74.20;;;;;;5075738;28;20044;-72
2021/09/03 12:00:48;;;;;;;7.55;5.40;;;19.00;74.30;;;;;;5075699;28;20200;-72
2021/09/03 12:03:15;;;;;;;8.07;5.95;;;19.00;74.30;;;;;;5076525;28;20036;-72
2021/09/03 12:05:45;;;;;;;7.63;5.35;;;19.00;74.20;;;;;;5075934;28;20324;-72
2021/09/03 12:08:16;;;;;;;10.10;6.00;;;19.00;74.10;;;;;;5075677;28;20474;-71
2021/09/03 12:11:01;;;;;;;7.78;5.53;;;19.00;74.20;;;;;;5075609;28;20048;-72
2021/09/03 12:13:30;;;;;;;8.40;6.25;;;19.00;74.10;;;;;;5075723;28;20037;-72
2021/09/03 12:16:04;;;;;;;9.55;5.60;;;19.00;74.10;;;;;;5075542;28;20447;-72
2021/09/03 12:18:39;;;;;;;8.70;5.95;;;19.10;74.20;;;;;;5075753;28;20059;-73
2021/09/03 12:21:17;;;;;;;7.90;6.13;;;19.10;74.20;;;;;;5075409;28;20036;-72
2021/09/03 12:23:47;;;;;;;10.95;6.10;;;19.10;74.20;;;;;;5075627;28;20131;-72
2021/09/03 12:26:19;;;;;;;7.95;5.55;;;19.10;74.10;;;;;;5075381;28;20047;-73
2021/09/03 12:28:47;;;;;;;9.95;6.30;;;19.10;74.20;;;;;;5076138;28;20186;-73
2021/09/03 12:31:19;;;;;;;10.05;6.07;;;19.10;74.20;;;;;;5075591;28;20449;-72
2021/09/03 12:34:01;;;;;;;9.05;6.22;;;19.10;74.10;;;;;;5075160;28;20036;-73
2021/09/03 12:36:32;;;;;;;9.60;6.50;;;19.10;74.10;;;;;;5075464;28;20051;-72
2021/09/03 12:39:09;;;;;;;7.28;6.32;;;19.10;74.20;;;;;;5075531;28;20044;-73
2021/09/03 12:41:39;;;;;;;9.75;6.40;;;19.10;74.10;;;;;;5076018;28;20044;-72
2021/09/03 12:44:07;;;;;;;8.27;6.45;;;19.10;74.20;;;;;;5075227;28;20463;-72
2021/09/03 12:46:38;;;;;;;9.20;6.25;;;19.10;74.20;;;;;;5075232;28;20068;-73